sensor_id;sensor_type;location;lat;lon;timestamp;P1;durP1;ratioP1;P2;durP2;ratioP2
12248;SDS011;6187;50.778;6.142;2023-08-06T00:00:36;1.10;;;0.83;;
12248;SDS011;6187;50.778;6.142;2023-08-06T00:03:05;1.20;;;0.90;;
12248;SDS011;6187;50.778;6.142;2023-08-06T00:05:33;0.83;;;0.70;;
12248;SDS011;6187;50.778;6.142;2023-08-06T00:08:02;0.60;;;0.60;;
12248;SDS011;6187;50.778;6.142;2023-08-06T00:10:31;0.60;;;0.50;;
12248;SDS011;6187;50.778;6.142;2023-08-06T00:12:59;0.50;;;0.50;;
12248;SDS011;6187;50.778;6.142;2023-08-06T00:15:28;0.80;;;0.70;;
12248;SDS011;6187;50.778;6.142;2023-08-06T00:17:58;0.90;;;0.73;;
12248;SDS011;6187;50.778;6.142;2023-08-06T00:20:27;1.13;;;0.73;;
12248;SDS011;6187;50.778;6.142;2023-08-06T00:22:55;0.50;;;0.50;;
12248;SDS011;6187;50.778;6.142;2023-08-06T00:25:24;0.63;;;0.63;;
12248;SDS011;6187;50.778;6.142;2023-08-06T00:27:53;0.60;;;0.60;;
12248;SDS011;6187;50.778;6.142;2023-08-06T00:30:23;0.63;;;0.63;;
12248;SDS011;6187;50.778;6.142;2023-08-06T00:32:51;0.60;;;0.60;;
12248;SDS011;6187;50.778;6.142;2023-08-06T00:35:21;1.23;;;0.70;;
12248;SDS011;6187;50.778;6.142;2023-08-06T00:37:50;0.57;;;0.53;;
12248;SDS011;6187;50.778;6.142;2023-08-06T00:40:20;1.10;;;0.60;;
12248;SDS011;6187;50.778;6.142;2023-08-06T00:42:49;0.53;;;0.53;;
12248;SDS011;6187;50.778;6.142;2023-08-06T00:45:17;0.60;;;0.60;;
12248;SDS011;6187;50.778;6.142;2023-08-06T00:47:46;0.60;;;0.50;;
12248;SDS011;6187;50.778;6.142;2023-08-06T00:50:16;0.70;;;0.63;;
12248;SDS011;6187;50.778;6.142;2023-08-06T00:52:45;0.60;;;0.60;;
12248;SDS011;6187;50.778;6.142;2023-08-06T00:55:14;1.33;;;0.67;;
12248;SDS011;6187;50.778;6.142;2023-08-06T00:57:43;0.60;;;0.60;;
12248;SDS011;6187;50.778;6.142;2023-08-06T01:00:12;1.90;;;0.80;;
12248;SDS011;6187;50.778;6.142;2023-08-06T01:02:41;0.50;;;0.50;;
12248;SDS011;6187;50.778;6.142;2023-08-06T01:05:09;0.70;;;0.63;;
12248;SDS011;6187;50.778;6.142;2023-08-06T01:07:41;0.70;;;0.70;;
12248;SDS011;6187;50.778;6.142;2023-08-06T01:10:19;0.97;;;0.70;;
12248;SDS011;6187;50.778;6.142;2023-08-06T01:12:50;1.03;;;0.80;;
12248;SDS011;6187;50.778;6.142;2023-08-06T01:15:21;2.03;;;0.83;;
12248;SDS011;6187;50.778;6.142;2023-08-06T01:17:50;1.10;;;0.70;;
12248;SDS011;6187;50.778;6.142;2023-08-06T01:20:19;0.67;;;0.57;;
12248;SDS011;6187;50.778;6.142;2023-08-06T01:22:49;0.87;;;0.60;;
12248;SDS011;6187;50.778;6.142;2023-08-06T01:25:18;0.77;;;0.67;;
12248;SDS011;6187;50.778;6.142;2023-08-06T01:27:47;0.90;;;0.40;;
12248;SDS011;6187;50.778;6.142;2023-08-06T01:30:17;0.83;;;0.70;;
12248;SDS011;6187;50.778;6.142;2023-08-06T01:32:46;0.50;;;0.50;;
12248;SDS011;6187;50.778;6.142;2023-08-06T01:35:17;0.80;;;0.40;;
12248;SDS011;6187;50.778;6.142;2023-08-06T01:37:47;0.50;;;0.50;;
12248;SDS011;6187;50.778;6.142;2023-08-06T01:40:18;0.70;;;0.67;;
12248;SDS011;6187;50.778;6.142;2023-08-06T01:42:46;0.53;;;0.50;;
12248;SDS011;6187;50.778;6.142;2023-08-06T01:45:15;0.70;;;0.50;;
12248;SDS011;6187;50.778;6.142;2023-08-06T01:47:43;0.30;;;0.30;;
12248;SDS011;6187;50.778;6.142;2023-08-06T01:50:12;0.63;;;0.60;;
12248;SDS011;6187;50.778;6.142;2023-08-06T01:52:41;0.73;;;0.60;;
12248;SDS011;6187;50.778;6.142;2023-08-06T01:55:09;0.60;;;0.60;;
12248;SDS011;6187;50.778;6.142;2023-08-06T01:57:39;1.10;;;0.70;;
12248;SDS011;6187;50.778;6.142;2023-08-06T02:00:08;0.87;;;0.67;;
12248;SDS011;6187;50.778;6.142;2023-08-06T02:02:37;0.63;;;0.60;;
12248;SDS011;6187;50.778;6.142;2023-08-06T02:05:07;0.67;;;0.53;;
12248;SDS011;6187;50.778;6.142;2023-08-06T02:07:36;0.50;;;0.50;;
12248;SDS011;6187;50.778;6.142;2023-08-06T02:10:05;0.63;;;0.60;;
12248;SDS011;6187;50.778;6.142;2023-08-06T02:12:33;0.70;;;0.70;;
12248;SDS011;6187;50.778;6.142;2023-08-06T02:15:04;0.90;;;0.80;;
12248;SDS011;6187;50.778;6.142;2023-08-06T02:17:33;0.90;;;0.60;;
12248;SDS011;6187;50.778;6.142;2023-08-06T02:20:01;1.57;;;0.87;;
12248;SDS011;6187;50.778;6.142;2023-08-06T02:22:30;0.57;;;0.57;;
12248;SDS011;6187;50.778;6.142;2023-08-06T02:24:59;1.73;;;0.70;;
12248;SDS011;6187;50.778;6.142;2023-08-06T02:27:28;0.50;;;0.50;;
12248;SDS011;6187;50.778;6.142;2023-08-06T02:29:57;0.70;;;0.60;;
12248;SDS011;6187;50.778;6.142;2023-08-06T02:32:27;0.87;;;0.80;;
12248;SDS011;6187;50.778;6.142;2023-08-06T02:34:56;0.80;;;0.70;;
12248;SDS011;6187;50.778;6.142;2023-08-06T02:37:25;0.60;;;0.50;;
12248;SDS011;6187;50.778;6.142;2023-08-06T02:39:54;1.20;;;0.60;;
12248;SDS011;6187;50.778;6.142;2023-08-06T02:42:22;1.80;;;0.60;;
12248;SDS011;6187;50.778;6.142;2023-08-06T02:44:52;0.60;;;0.47;;
12248;SDS011;6187;50.778;6.142;2023-08-06T02:47:22;0.70;;;0.70;;
12248;SDS011;6187;50.778;6.142;2023-08-06T02:49:52;0.73;;;0.73;;
12248;SDS011;6187;50.778;6.142;2023-08-06T02:52:21;0.77;;;0.50;;
12248;SDS011;6187;50.778;6.142;2023-08-06T02:54:49;1.37;;;0.60;;
12248;SDS011;6187;50.778;6.142;2023-08-06T02:57:18;0.60;;;0.60;;
12248;SDS011;6187;50.778;6.142;2023-08-06T02:59:46;0.67;;;0.57;;
12248;SDS011;6187;50.778;6.142;2023-08-06T03:02:15;0.40;;;0.40;;
12248;SDS011;6187;50.778;6.142;2023-08-06T03:04:44;1.50;;;0.73;;
12248;SDS011;6187;50.778;6.142;2023-08-06T03:07:14;1.03;;;0.80;;
12248;SDS011;6187;50.778;6.142;2023-08-06T03:09:42;1.00;;;0.60;;
12248;SDS011;6187;50.778;6.142;2023-08-06T03:12:11;1.00;;;0.80;;
12248;SDS011;6187;50.778;6.142;2023-08-06T03:14:41;1.57;;;0.70;;
12248;SDS011;6187;50.778;6.142;2023-08-06T03:17:09;0.50;;;0.50;;
12248;SDS011;6187;50.778;6.142;2023-08-06T03:19:38;0.50;;;0.50;;
12248;SDS011;6187;50.778;6.142;2023-08-06T03:22:07;1.13;;;0.60;;
12248;SDS011;6187;50.778;6.142;2023-08-06T03:24:37;0.77;;;0.60;;
12248;SDS011;6187;50.778;6.142;2023-08-06T03:27:05;0.50;;;0.50;;
12248;SDS011;6187;50.778;6.142;2023-08-06T03:29:34;0.70;;;0.40;;
12248;SDS011;6187;50.778;6.142;2023-08-06T03:32:03;0.80;;;0.70;;
12248;SDS011;6187;50.778;6.142;2023-08-06T03:34:32;0.43;;;0.43;;
12248;SDS011;6187;50.778;6.142;2023-08-06T03:37:00;0.60;;;0.50;;
12248;SDS011;6187;50.778;6.142;2023-08-06T03:39:29;0.50;;;0.50;;
12248;SDS011;6187;50.778;6.142;2023-08-06T03:41:59;1.03;;;0.60;;
12248;SDS011;6187;50.778;6.142;2023-08-06T03:44:27;0.40;;;0.40;;
12248;SDS011;6187;50.778;6.142;2023-08-06T03:46:57;0.73;;;0.30;;
12248;SDS011;6187;50.778;6.142;2023-08-06T03:49:26;0.40;;;0.40;;
12248;SDS011;6187;50.778;6.142;2023-08-06T03:51:54;0.40;;;0.40;;
12248;SDS011;6187;50.778;6.142;2023-08-06T03:54:23;0.70;;;0.40;;
12248;SDS011;6187;50.778;6.142;2023-08-06T03:56:52;0.30;;;0.30;;
12248;SDS011;6187;50.778;6.142;2023-08-06T03:59:21;0.30;;;0.30;;
12248;SDS011;6187;50.778;6.142;2023-08-06T04:01:50;1.00;;;0.30;;
12248;SDS011;6187;50.778;6.142;2023-08-06T04:04:19;0.30;;;0.30;;
12248;SDS011;6187;50.778;6.142;2023-08-06T04:06:48;0.67;;;0.47;;
12248;SDS011;6187;50.778;6.142;2023-08-06T04:09:16;0.30;;;0.30;;
12248;SDS011;6187;50.778;6.142;2023-08-06T04:11:46;0.70;;;0.40;;
12248;SDS011;6187;50.778;6.142;2023-08-06T04:14:14;0.40;;;0.40;;
12248;SDS011;6187;50.778;6.142;2023-08-06T04:16:44;0.30;;;0.30;;
12248;SDS011;6187;50.778;6.142;2023-08-06T04:19:13;0.27;;;0.27;;
12248;SDS011;6187;50.778;6.142;2023-08-06T04:21:42;0.57;;;0.50;;
12248;SDS011;6187;50.778;6.142;2023-08-06T04:24:10;0.50;;;0.50;;
12248;SDS011;6187;50.778;6.142;2023-08-06T04:26:39;0.57;;;0.57;;
12248;SDS011;6187;50.778;6.142;2023-08-06T04:29:08;0.50;;;0.50;;
12248;SDS011;6187;50.778;6.142;2023-08-06T04:31:36;0.70;;;0.67;;
12248;SDS011;6187;50.778;6.142;2023-08-06T04:34:06;0.73;;;0.67;;
12248;SDS011;6187;50.778;6.142;2023-08-06T04:36:35;0.80;;;0.80;;
12248;SDS011;6187;50.778;6.142;2023-08-06T04:39:05;1.17;;;0.97;;
12248;SDS011;6187;50.778;6.142;2023-08-06T04:41:34;1.30;;;1.20;;
12248;SDS011;6187;50.778;6.142;2023-08-06T04:44:02;1.07;;;0.97;;
12248;SDS011;6187;50.778;6.142;2023-08-06T04:46:31;1.17;;;1.07;;
12248;SDS011;6187;50.778;6.142;2023-08-06T04:49:00;1.53;;;1.30;;
12248;SDS011;6187;50.778;6.142;2023-08-06T04:51:30;1.23;;;1.07;;
12248;SDS011;6187;50.778;6.142;2023-08-06T04:53:58;1.90;;;1.20;;
12248;SDS011;6187;50.778;6.142;2023-08-06T04:56:27;1.00;;;0.90;;
12248;SDS011;6187;50.778;6.142;2023-08-06T04:58:56;1.40;;;1.30;;
12248;SDS011;6187;50.778;6.142;2023-08-06T05:01:25;1.40;;;1.30;;
12248;SDS011;6187;50.778;6.142;2023-08-06T05:03:53;2.03;;;1.30;;
12248;SDS011;6187;50.778;6.142;2023-08-06T05:06:22;1.53;;;1.10;;
12248;SDS011;6187;50.778;6.142;2023-08-06T05:08:52;1.37;;;1.27;;
12248;SDS011;6187;50.778;6.142;2023-08-06T05:11:20;2.07;;;1.80;;
12248;SDS011;6187;50.778;6.142;2023-08-06T05:13:50;1.97;;;1.40;;
12248;SDS011;6187;50.778;6.142;2023-08-06T05:16:19;1.60;;;1.50;;
12248;SDS011;6187;50.778;6.142;2023-08-06T05:18:47;1.50;;;1.40;;
12248;SDS011;6187;50.778;6.142;2023-08-06T05:21:16;1.50;;;1.40;;
12248;SDS011;6187;50.778;6.142;2023-08-06T05:23:45;1.80;;;1.50;;
12248;SDS011;6187;50.778;6.142;2023-08-06T05:26:15;1.50;;;1.40;;
12248;SDS011;6187;50.778;6.142;2023-08-06T05:28:45;1.60;;;1.50;;
12248;SDS011;6187;50.778;6.142;2023-08-06T05:31:14;1.70;;;1.60;;
12248;SDS011;6187;50.778;6.142;2023-08-06T05:33:43;2.20;;;2.00;;
12248;SDS011;6187;50.778;6.142;2023-08-06T05:36:11;2.50;;;1.97;;
12248;SDS011;6187;50.778;6.142;2023-08-06T05:38:40;2.10;;;1.90;;
12248;SDS011;6187;50.778;6.142;2023-08-06T05:41:08;2.10;;;1.90;;
12248;SDS011;6187;50.778;6.142;2023-08-06T05:43:38;1.97;;;1.77;;
12248;SDS011;6187;50.778;6.142;2023-08-06T05:46:07;2.13;;;1.93;;
12248;SDS011;6187;50.778;6.142;2023-08-06T05:48:36;2.13;;;1.93;;
12248;SDS011;6187;50.778;6.142;2023-08-06T05:51:05;2.83;;;1.77;;
12248;SDS011;6187;50.778;6.142;2023-08-06T05:53:34;2.60;;;2.03;;
12248;SDS011;6187;50.778;6.142;2023-08-06T05:56:03;2.70;;;2.20;;
12248;SDS011;6187;50.778;6.142;2023-08-06T05:58:31;2.43;;;2.23;;
12248;SDS011;6187;50.778;6.142;2023-08-06T06:01:01;2.70;;;2.40;;
12248;SDS011;6187;50.778;6.142;2023-08-06T06:03:30;2.43;;;2.23;;
12248;SDS011;6187;50.778;6.142;2023-08-06T06:05:59;2.13;;;2.00;;
12248;SDS011;6187;50.778;6.142;2023-08-06T06:08:29;2.50;;;2.30;;
12248;SDS011;6187;50.778;6.142;2023-08-06T06:10:58;2.40;;;2.17;;
12248;SDS011;6187;50.778;6.142;2023-08-06T06:13:26;2.57;;;2.37;;
12248;SDS011;6187;50.778;6.142;2023-08-06T06:15:55;2.73;;;2.53;;
12248;SDS011;6187;50.778;6.142;2023-08-06T06:18:25;3.10;;;2.80;;
12248;SDS011;6187;50.778;6.142;2023-08-06T06:20:53;2.80;;;2.50;;
12248;SDS011;6187;50.778;6.142;2023-08-06T06:23:22;3.13;;;2.50;;
12248;SDS011;6187;50.778;6.142;2023-08-06T06:25:51;2.90;;;2.63;;
12248;SDS011;6187;50.778;6.142;2023-08-06T06:28:19;2.97;;;2.77;;
12248;SDS011;6187;50.778;6.142;2023-08-06T06:30:48;2.73;;;2.53;;
12248;SDS011;6187;50.778;6.142;2023-08-06T06:33:17;4.30;;;3.20;;
12248;SDS011;6187;50.778;6.142;2023-08-06T06:35:47;2.60;;;2.40;;
12248;SDS011;6187;50.778;6.142;2023-08-06T06:38:18;2.67;;;2.20;;
12248;SDS011;6187;50.778;6.142;2023-08-06T06:40:53;2.77;;;2.57;;
12248;SDS011;6187;50.778;6.142;2023-08-06T06:43:21;4.10;;;3.10;;
12248;SDS011;6187;50.778;6.142;2023-08-06T06:45:52;4.20;;;2.70;;
12248;SDS011;6187;50.778;6.142;2023-08-06T06:48:21;2.90;;;2.60;;
12248;SDS011;6187;50.778;6.142;2023-08-06T06:50:51;3.50;;;2.40;;
12248;SDS011;6187;50.778;6.142;2023-08-06T06:53:20;5.10;;;2.87;;
12248;SDS011;6187;50.778;6.142;2023-08-06T06:55:53;3.23;;;2.77;;
12248;SDS011;6187;50.778;6.142;2023-08-06T06:58:22;2.87;;;2.50;;
12248;SDS011;6187;50.778;6.142;2023-08-06T07:00:50;3.37;;;2.80;;
12248;SDS011;6187;50.778;6.142;2023-08-06T07:03:19;2.70;;;2.50;;
12248;SDS011;6187;50.778;6.142;2023-08-06T07:05:49;3.27;;;2.90;;
12248;SDS011;6187;50.778;6.142;2023-08-06T07:08:19;3.30;;;2.77;;
12248;SDS011;6187;50.778;6.142;2023-08-06T07:10:47;4.00;;;2.80;;
12248;SDS011;6187;50.778;6.142;2023-08-06T07:13:16;3.67;;;3.00;;
12248;SDS011;6187;50.778;6.142;2023-08-06T07:15:44;2.30;;;2.10;;
12248;SDS011;6187;50.778;6.142;2023-08-06T07:18:13;3.17;;;2.40;;
12248;SDS011;6187;50.778;6.142;2023-08-06T07:20:42;2.87;;;2.20;;
12248;SDS011;6187;50.778;6.142;2023-08-06T07:23:16;2.20;;;2.00;;
12248;SDS011;6187;50.778;6.142;2023-08-06T07:25:47;2.20;;;1.80;;
12248;SDS011;6187;50.778;6.142;2023-08-06T07:28:15;1.67;;;1.57;;
12248;SDS011;6187;50.778;6.142;2023-08-06T07:30:45;1.60;;;1.50;;
12248;SDS011;6187;50.778;6.142;2023-08-06T07:33:14;1.30;;;1.20;;
12248;SDS011;6187;50.778;6.142;2023-08-06T07:35:42;1.30;;;1.20;;
12248;SDS011;6187;50.778;6.142;2023-08-06T07:38:11;0.97;;;0.90;;
12248;SDS011;6187;50.778;6.142;2023-08-06T07:40:40;1.20;;;1.10;;
12248;SDS011;6187;50.778;6.142;2023-08-06T07:43:10;1.90;;;1.00;;
12248;SDS011;6187;50.778;6.142;2023-08-06T07:45:38;0.90;;;0.90;;
12248;SDS011;6187;50.778;6.142;2023-08-06T07:48:07;0.80;;;0.80;;
12248;SDS011;6187;50.778;6.142;2023-08-06T07:50:35;1.43;;;1.20;;
12248;SDS011;6187;50.778;6.142;2023-08-06T07:53:04;1.23;;;1.13;;
12248;SDS011;6187;50.778;6.142;2023-08-06T07:55:33;0.73;;;0.73;;
12248;SDS011;6187;50.778;6.142;2023-08-06T07:58:01;0.40;;;0.40;;
12248;SDS011;6187;50.778;6.142;2023-08-06T08:00:32;0.50;;;0.50;;
12248;SDS011;6187;50.778;6.142;2023-08-06T08:03:00;1.43;;;0.60;;
12248;SDS011;6187;50.778;6.142;2023-08-06T08:05:29;0.60;;;0.57;;
12248;SDS011;6187;50.778;6.142;2023-08-06T08:07:58;0.50;;;0.50;;
12248;SDS011;6187;50.778;6.142;2023-08-06T08:10:27;0.80;;;0.40;;
12248;SDS011;6187;50.778;6.142;2023-08-06T08:12:55;0.60;;;0.60;;
12248;SDS011;6187;50.778;6.142;2023-08-06T08:15:25;0.43;;;0.43;;
12248;SDS011;6187;50.778;6.142;2023-08-06T08:17:55;0.30;;;0.30;;
12248;SDS011;6187;50.778;6.142;2023-08-06T08:20:23;0.60;;;0.60;;
12248;SDS011;6187;50.778;6.142;2023-08-06T08:22:54;0.50;;;0.50;;
12248;SDS011;6187;50.778;6.142;2023-08-06T08:25:22;0.80;;;0.60;;
12248;SDS011;6187;50.778;6.142;2023-08-06T08:27:51;0.63;;;0.63;;
12248;SDS011;6187;50.778;6.142;2023-08-06T08:30:19;1.10;;;1.00;;
12248;SDS011;6187;50.778;6.142;2023-08-06T08:32:48;1.13;;;1.03;;
12248;SDS011;6187;50.778;6.142;2023-08-06T08:35:18;1.20;;;1.10;;
12248;SDS011;6187;50.778;6.142;2023-08-06T08:37:47;1.20;;;1.10;;
12248;SDS011;6187;50.778;6.142;2023-08-06T08:40:15;1.50;;;1.37;;
12248;SDS011;6187;50.778;6.142;2023-08-06T08:42:44;1.40;;;1.30;;
12248;SDS011;6187;50.778;6.142;2023-08-06T08:45:13;1.57;;;1.47;;
12248;SDS011;6187;50.778;6.142;2023-08-06T08:47:42;1.73;;;1.63;;
12248;SDS011;6187;50.778;6.142;2023-08-06T08:50:11;2.57;;;1.70;;
12248;SDS011;6187;50.778;6.142;2023-08-06T08:52:42;1.60;;;1.50;;
12248;SDS011;6187;50.778;6.142;2023-08-06T08:55:14;1.80;;;1.50;;
12248;SDS011;6187;50.778;6.142;2023-08-06T08:57:42;1.73;;;1.40;;
12248;SDS011;6187;50.778;6.142;2023-08-06T09:00:11;1.87;;;1.37;;
12248;SDS011;6187;50.778;6.142;2023-08-06T09:02:40;2.07;;;1.60;;
12248;SDS011;6187;50.778;6.142;2023-08-06T09:05:10;1.60;;;1.50;;
12248;SDS011;6187;50.778;6.142;2023-08-06T09:07:40;1.70;;;1.47;;
12248;SDS011;6187;50.778;6.142;2023-08-06T09:10:12;1.40;;;1.30;;
12248;SDS011;6187;50.778;6.142;2023-08-06T09:12:43;1.97;;;1.20;;
12248;SDS011;6187;50.778;6.142;2023-08-06T09:15:13;2.20;;;1.53;;
12248;SDS011;6187;50.778;6.142;2023-08-06T09:17:41;2.13;;;1.70;;
12248;SDS011;6187;50.778;6.142;2023-08-06T09:20:11;1.40;;;1.20;;
12248;SDS011;6187;50.778;6.142;2023-08-06T09:22:39;1.40;;;1.20;;
12248;SDS011;6187;50.778;6.142;2023-08-06T09:25:08;2.03;;;1.37;;
12248;SDS011;6187;50.778;6.142;2023-08-06T09:27:38;1.40;;;1.30;;
12248;SDS011;6187;50.778;6.142;2023-08-06T09:30:07;3.53;;;1.40;;
12248;SDS011;6187;50.778;6.142;2023-08-06T09:32:44;1.47;;;1.23;;
12248;SDS011;6187;50.778;6.142;2023-08-06T09:35:17;2.80;;;1.47;;
12248;SDS011;6187;50.778;6.142;2023-08-06T09:37:46;3.27;;;1.13;;
12248;SDS011;6187;50.778;6.142;2023-08-06T09:40:24;2.47;;;1.60;;
12248;SDS011;6187;50.778;6.142;2023-08-06T09:42:54;1.87;;;1.00;;
12248;SDS011;6187;50.778;6.142;2023-08-06T09:45:23;1.33;;;0.93;;
12248;SDS011;6187;50.778;6.142;2023-08-06T09:47:52;2.30;;;1.20;;
12248;SDS011;6187;50.778;6.142;2023-08-06T09:50:25;0.90;;;0.80;;
12248;SDS011;6187;50.778;6.142;2023-08-06T09:52:57;2.40;;;1.00;;
12248;SDS011;6187;50.778;6.142;2023-08-06T09:55:25;1.43;;;0.80;;
12248;SDS011;6187;50.778;6.142;2023-08-06T09:57:56;4.60;;;1.00;;
12248;SDS011;6187;50.778;6.142;2023-08-06T10:00:24;0.80;;;0.80;;
12248;SDS011;6187;50.778;6.142;2023-08-06T10:02:54;0.83;;;0.77;;
12248;SDS011;6187;50.778;6.142;2023-08-06T10:05:27;1.20;;;0.90;;
12248;SDS011;6187;50.778;6.142;2023-08-06T10:07:57;1.40;;;0.80;;
12248;SDS011;6187;50.778;6.142;2023-08-06T10:10:25;2.33;;;1.10;;
12248;SDS011;6187;50.778;6.142;2023-08-06T10:12:56;1.47;;;1.00;;
12248;SDS011;6187;50.778;6.142;2023-08-06T10:15:28;1.17;;;0.97;;
12248;SDS011;6187;50.778;6.142;2023-08-06T10:17:57;2.57;;;1.07;;
12248;SDS011;6187;50.778;6.142;2023-08-06T10:20:32;1.57;;;1.10;;
12248;SDS011;6187;50.778;6.142;2023-08-06T10:23:01;1.47;;;1.10;;
12248;SDS011;6187;50.778;6.142;2023-08-06T10:25:30;3.87;;;1.60;;
12248;SDS011;6187;50.778;6.142;2023-08-06T10:28:02;1.50;;;1.40;;
12248;SDS011;6187;50.778;6.142;2023-08-06T10:30:41;1.73;;;1.20;;
12248;SDS011;6187;50.778;6.142;2023-08-06T10:33:09;1.67;;;1.30;;
12248;SDS011;6187;50.778;6.142;2023-08-06T10:35:40;1.93;;;1.00;;
12248;SDS011;6187;50.778;6.142;2023-08-06T10:38:10;1.63;;;1.10;;
12248;SDS011;6187;50.778;6.142;2023-08-06T10:40:40;1.50;;;1.20;;
12248;SDS011;6187;50.778;6.142;2023-08-06T10:43:24;3.37;;;1.20;;
12248;SDS011;6187;50.778;6.142;2023-08-06T10:45:53;1.83;;;1.07;;
12248;SDS011;6187;50.778;6.142;2023-08-06T10:48:28;2.17;;;1.03;;
12248;SDS011;6187;50.778;6.142;2023-08-06T10:50:59;1.53;;;0.90;;
12248;SDS011;6187;50.778;6.142;2023-08-06T10:53:28;1.67;;;0.90;;
12248;SDS011;6187;50.778;6.142;2023-08-06T10:56:00;1.00;;;0.70;;
12248;SDS011;6187;50.778;6.142;2023-08-06T10:58:33;0.77;;;0.70;;
12248;SDS011;6187;50.778;6.142;2023-08-06T11:01:02;0.90;;;0.80;;
12248;SDS011;6187;50.778;6.142;2023-08-06T11:03:31;0.77;;;0.70;;
12248;SDS011;6187;50.778;6.142;2023-08-06T11:06:00;1.53;;;0.90;;
12248;SDS011;6187;50.778;6.142;2023-08-06T11:08:33;1.30;;;1.10;;
12248;SDS011;6187;50.778;6.142;2023-08-06T11:11:08;2.77;;;0.90;;
12248;SDS011;6187;50.778;6.142;2023-08-06T11:13:38;2.00;;;1.00;;
12248;SDS011;6187;50.778;6.142;2023-08-06T11:16:07;1.27;;;0.90;;
12248;SDS011;6187;50.778;6.142;2023-08-06T11:18:36;1.57;;;1.10;;
12248;SDS011;6187;50.778;6.142;2023-08-06T11:21:05;1.17;;;1.07;;
12248;SDS011;6187;50.778;6.142;2023-08-06T11:23:34;1.40;;;1.10;;
12248;SDS011;6187;50.778;6.142;2023-08-06T11:26:03;1.10;;;1.00;;
12248;SDS011;6187;50.778;6.142;2023-08-06T11:28:32;1.73;;;1.00;;
12248;SDS011;6187;50.778;6.142;2023-08-06T11:31:02;1.20;;;1.10;;
12248;SDS011;6187;50.778;6.142;2023-08-06T11:33:31;1.77;;;1.13;;
12248;SDS011;6187;50.778;6.142;2023-08-06T11:35:59;1.03;;;0.93;;
12248;SDS011;6187;50.778;6.142;2023-08-06T11:38:29;1.13;;;0.90;;
12248;SDS011;6187;50.778;6.142;2023-08-06T11:40:58;0.80;;;0.80;;
12248;SDS011;6187;50.778;6.142;2023-08-06T11:43:29;0.80;;;0.80;;
12248;SDS011;6187;50.778;6.142;2023-08-06T11:45:59;1.37;;;0.60;;
12248;SDS011;6187;50.778;6.142;2023-08-06T11:48:29;3.10;;;0.80;;
12248;SDS011;6187;50.778;6.142;2023-08-06T11:50:58;0.60;;;0.60;;
12248;SDS011;6187;50.778;6.142;2023-08-06T11:53:27;0.80;;;0.70;;
12248;SDS011;6187;50.778;6.142;2023-08-06T11:55:56;0.70;;;0.70;;
12248;SDS011;6187;50.778;6.142;2023-08-06T11:58:25;0.50;;;0.50;;
12248;SDS011;6187;50.778;6.142;2023-08-06T12:00:53;0.93;;;0.70;;
12248;SDS011;6187;50.778;6.142;2023-08-06T12:03:22;0.77;;;0.50;;
12248;SDS011;6187;50.778;6.142;2023-08-06T12:05:55;1.07;;;0.63;;
12248;SDS011;6187;50.778;6.142;2023-08-06T12:08:26;0.57;;;0.57;;
12248;SDS011;6187;50.778;6.142;2023-08-06T12:10:55;0.50;;;0.50;;
12248;SDS011;6187;50.778;6.142;2023-08-06T12:13:23;0.40;;;0.40;;
12248;SDS011;6187;50.778;6.142;2023-08-06T12:15:53;0.37;;;0.37;;
12248;SDS011;6187;50.778;6.142;2023-08-06T12:18:23;1.63;;;0.60;;
12248;SDS011;6187;50.778;6.142;2023-08-06T12:20:52;0.50;;;0.50;;
12248;SDS011;6187;50.778;6.142;2023-08-06T12:23:22;0.90;;;0.70;;
12248;SDS011;6187;50.778;6.142;2023-08-06T12:25:51;1.47;;;0.70;;
12248;SDS011;6187;50.778;6.142;2023-08-06T12:28:19;0.87;;;0.70;;
12248;SDS011;6187;50.778;6.142;2023-08-06T12:30:49;0.50;;;0.50;;
12248;SDS011;6187;50.778;6.142;2023-08-06T12:33:21;0.93;;;0.80;;
12248;SDS011;6187;50.778;6.142;2023-08-06T12:35:50;1.43;;;0.90;;
12248;SDS011;6187;50.778;6.142;2023-08-06T12:38:20;1.40;;;0.90;;
12248;SDS011;6187;50.778;6.142;2023-08-06T12:40:50;1.57;;;0.80;;
12248;SDS011;6187;50.778;6.142;2023-08-06T12:43:19;1.37;;;1.03;;
12248;SDS011;6187;50.778;6.142;2023-08-06T12:45:47;1.13;;;1.00;;
12248;SDS011;6187;50.778;6.142;2023-08-06T12:48:16;1.13;;;0.87;;
12248;SDS011;6187;50.778;6.142;2023-08-06T12:50:45;2.23;;;0.80;;
12248;SDS011;6187;50.778;6.142;2023-08-06T12:53:16;0.80;;;0.80;;
12248;SDS011;6187;50.778;6.142;2023-08-06T12:55:44;0.70;;;0.70;;
12248;SDS011;6187;50.778;6.142;2023-08-06T12:58:14;2.90;;;0.87;;
12248;SDS011;6187;50.778;6.142;2023-08-06T13:00:43;0.80;;;0.80;;
12248;SDS011;6187;50.778;6.142;2023-08-06T13:03:12;1.47;;;1.00;;
12248;SDS011;6187;50.778;6.142;2023-08-06T13:05:40;2.53;;;0.90;;
12248;SDS011;6187;50.778;6.142;2023-08-06T13:08:10;0.83;;;0.80;;
12248;SDS011;6187;50.778;6.142;2023-08-06T13:10:39;1.17;;;1.07;;
12248;SDS011;6187;50.778;6.142;2023-08-06T13:13:07;1.57;;;0.80;;
12248;SDS011;6187;50.778;6.142;2023-08-06T13:15:38;1.77;;;1.00;;
12248;SDS011;6187;50.778;6.142;2023-08-06T13:18:07;2.33;;;1.27;;
12248;SDS011;6187;50.778;6.142;2023-08-06T13:20:37;1.50;;;0.70;;
12248;SDS011;6187;50.778;6.142;2023-08-06T13:23:06;1.10;;;0.80;;
12248;SDS011;6187;50.778;6.142;2023-08-06T13:25:35;0.70;;;0.70;;
12248;SDS011;6187;50.778;6.142;2023-08-06T13:28:05;1.40;;;0.60;;
12248;SDS011;6187;50.778;6.142;2023-08-06T13:30:34;0.83;;;0.83;;
12248;SDS011;6187;50.778;6.142;2023-08-06T13:33:09;0.73;;;0.73;;
12248;SDS011;6187;50.778;6.142;2023-08-06T13:35:38;0.87;;;0.63;;
12248;SDS011;6187;50.778;6.142;2023-08-06T13:38:07;0.70;;;0.60;;
12248;SDS011;6187;50.778;6.142;2023-08-06T13:40:36;0.73;;;0.70;;
12248;SDS011;6187;50.778;6.142;2023-08-06T13:43:04;0.70;;;0.70;;
12248;SDS011;6187;50.778;6.142;2023-08-06T13:45:33;0.70;;;0.70;;
12248;SDS011;6187;50.778;6.142;2023-08-06T13:48:02;0.47;;;0.47;;
12248;SDS011;6187;50.778;6.142;2023-08-06T13:50:32;0.70;;;0.57;;
12248;SDS011;6187;50.778;6.142;2023-08-06T13:53:01;1.30;;;0.60;;
12248;SDS011;6187;50.778;6.142;2023-08-06T13:55:29;0.80;;;0.80;;
12248;SDS011;6187;50.778;6.142;2023-08-06T13:57:58;0.80;;;0.60;;
12248;SDS011;6187;50.778;6.142;2023-08-06T14:00:27;1.63;;;0.90;;
12248;SDS011;6187;50.778;6.142;2023-08-06T14:02:56;1.80;;;1.00;;
12248;SDS011;6187;50.778;6.142;2023-08-06T14:05:25;1.20;;;0.77;;
12248;SDS011;6187;50.778;6.142;2023-08-06T14:07:55;0.80;;;0.80;;
12248;SDS011;6187;50.778;6.142;2023-08-06T14:10:24;1.47;;;0.80;;
12248;SDS011;6187;50.778;6.142;2023-08-06T14:12:52;0.90;;;0.90;;
12248;SDS011;6187;50.778;6.142;2023-08-06T14:15:35;1.00;;;0.90;;
12248;SDS011;6187;50.778;6.142;2023-08-06T14:18:06;2.13;;;0.83;;
12248;SDS011;6187;50.778;6.142;2023-08-06T14:20:35;0.70;;;0.70;;
12248;SDS011;6187;50.778;6.142;2023-08-06T14:23:05;1.40;;;1.00;;
12248;SDS011;6187;50.778;6.142;2023-08-06T14:25:33;0.80;;;0.80;;
12248;SDS011;6187;50.778;6.142;2023-08-06T14:28:02;0.70;;;0.70;;
12248;SDS011;6187;50.778;6.142;2023-08-06T14:30:32;1.00;;;0.80;;
12248;SDS011;6187;50.778;6.142;2023-08-06T14:33:01;0.73;;;0.70;;
12248;SDS011;6187;50.778;6.142;2023-08-06T14:35:50;0.80;;;0.80;;
12248;SDS011;6187;50.778;6.142;2023-08-06T14:38:20;0.90;;;0.80;;
12248;SDS011;6187;50.778;6.142;2023-08-06T14:40:49;2.33;;;0.90;;
12248;SDS011;6187;50.778;6.142;2023-08-06T14:43:17;1.23;;;0.63;;
12248;SDS011;6187;50.778;6.142;2023-08-06T14:45:46;0.70;;;0.70;;
12248;SDS011;6187;50.778;6.142;2023-08-06T14:48:14;0.80;;;0.70;;
12248;SDS011;6187;50.778;6.142;2023-08-06T14:50:43;2.40;;;0.70;;
12248;SDS011;6187;50.778;6.142;2023-08-06T14:53:12;1.27;;;0.70;;
12248;SDS011;6187;50.778;6.142;2023-08-06T14:55:42;0.93;;;0.60;;
12248;SDS011;6187;50.778;6.142;2023-08-06T14:58:11;1.00;;;0.53;;
12248;SDS011;6187;50.778;6.142;2023-08-06T15:00:40;0.83;;;0.50;;
12248;SDS011;6187;50.778;6.142;2023-08-06T15:03:08;1.40;;;0.67;;
12248;SDS011;6187;50.778;6.142;2023-08-06T15:05:37;0.50;;;0.50;;
12248;SDS011;6187;50.778;6.142;2023-08-06T15:08:05;0.63;;;0.60;;
12248;SDS011;6187;50.778;6.142;2023-08-06T15:10:34;0.77;;;0.70;;
12248;SDS011;6187;50.778;6.142;2023-08-06T15:13:04;1.00;;;0.70;;